Wetterstation Vordersexau
Wetterdaten: Woche 13.02.12 - 19.02.12 (KW7)
Datum Zeit Temp. A. Feuchte A. Luftdruck Regen Wind Richtung Taupunkt Windchill Windben
13.02.2012 00:00 -12,1 C 79 % 1026,7 hPa 0,0 l/m 0,0 km/h O-NO -15,0 C -12,1 C 0,0 km/h
13.02.2012 01:00 -12,7 C 79 % 1026,6 hPa 0,0 l/m 0,0 km/h NO -15,6 C -12,7 C 0,0 km/h
13.02.2012 02:00 -12,6 C 80 % 1026,3 hPa 0,0 l/m 0,0 km/h O-NO -15,3 C -12,6 C 0,0 km/h
13.02.2012 03:00 -12,8 C 81 % 1025,7 hPa 0,0 l/m 0,0 km/h O-SO -15,4 C -12,8 C 0,0 km/h
13.02.2012 04:00 -10,2 C 81 % 1025,7 hPa 0,0 l/m 0,0 km/h O -12,8 C -10,2 C 0,0 km/h
13.02.2012 05:00 -9,1 C 79 % 1025,2 hPa 0,0 l/m 0,0 km/h O-SO -12,1 C -9,1 C 0,0 km/h
13.02.2012 06:00 -8,4 C 77 % 1024,7 hPa 0,0 l/m 0,0 km/h O-SO -11,7 C -8,4 C 0,0 km/h
13.02.2012 07:00 -8,0 C 77 % 1025,0 hPa 0,0 l/m 0,0 km/h W -11,3 C -8,0 C 0,0 km/h
13.02.2012 08:00 -7,6 C 77 % 1024,7 hPa 0,0 l/m 0,0 km/h W -10,9 C -7,6 C 0,0 km/h
13.02.2012 09:00 -6,9 C 78 % 1024,9 hPa 0,0 l/m 0,0 km/h S -10,1 C -6,9 C 0,0 km/h
13.02.2012 10:00 -5,4 C 75 % 1024,5 hPa 0,0 l/m 0,0 km/h W -9,1 C -5,4 C 0,0 km/h
13.02.2012 11:00 -2,7 C 65 % 1024,3 hPa 0,0 l/m 0,0 km/h W -8,3 C -2,7 C 0,0 km/h
13.02.2012 12:00 -1,5 C 59 % 1023,3 hPa 0,0 l/m 0,0 km/h W-SW -8,4 C -1,5 C 0,0 km/h
13.02.2012 13:00 -1,7 C 57 % 1022,1 hPa 0,0 l/m 0,0 km/h SW -9,1 C -1,7 C 0,0 km/h
13.02.2012 14:00 -0,6 C 53 % 1021,1 hPa 0,0 l/m 9,7 km/h SW -9,0 C -3,9 C 5,4 km/h
13.02.2012 15:00 -0,7 C 53 % 1020,5 hPa 0,0 l/m 3,9 km/h W -9,1 C -0,7 C 2,2 km/h
13.02.2012 16:00 -0,8 C 53 % 1020,2 hPa 0,0 l/m 0,0 km/h S-SW -9,2 C -0,8 C 0,0 km/h
13.02.2012 17:00 -1,7 C 57 % 1019,5 hPa 0,0 l/m 0,0 km/h S-SW -9,1 C -1,7 C 0,0 km/h
13.02.2012 18:00 -2,2 C 59 % 1019,0 hPa 0,0 l/m 0,0 km/h O-NO -9,1 C -2,2 C 0,0 km/h
13.02.2012 19:00 -2,2 C 62 % 1018,6 hPa 0,0 l/m 0,0 km/h O-NO -8,5 C -2,2 C 0,0 km/h
13.02.2012 20:00 -2,4 C 65 % 1018,1 hPa 0,0 l/m 0,0 km/h O-SO -8,1 C -2,4 C 0,0 km/h
13.02.2012 21:00 -3,1 C 74 % 1017,8 hPa 0,0 l/m 0,0 km/h O-SO -7,1 C -3,1 C 0,0 km/h
13.02.2012 22:00 -3,3 C 78 % 1017,5 hPa 0,0 l/m 0,0 km/h O -6,6 C -3,3 C 0,0 km/h
13.02.2012 23:00 -3,5 C 81 % 1017,1 hPa 0,0 l/m 0,0 km/h O -6,3 C -3,5 C 0,0 km/h
14.02.2012 00:00 -3,4 C 83 % 1016,6 hPa 0,0 l/m 0,0 km/h NO -5,9 C -3,4 C 0,0 km/h
14.02.2012 01:00 -3,2 C 84 % 1016,3 hPa 0,0 l/m 0,0 km/h O-NO -5,5 C -3,2 C 0,0 km/h
14.02.2012 02:00 -3,2 C 84 % 1016,0 hPa 0,0 l/m 0,0 km/h O-SO -5,5 C -3,2 C 0,0 km/h
14.02.2012 03:00 -2,9 C 85 % 1015,6 hPa 0,0 l/m 3,9 km/h O-SO -5,1 C -2,9 C 2,2 km/h
14.02.2012 04:00 -2,9 C 85 % 1015,5 hPa 0,0 l/m 0,0 km/h O-SO -5,1 C -2,9 C 0,0 km/h
14.02.2012 05:00 -2,8 C 85 % 1015,5 hPa 0,0 l/m 0,0 km/h SO -5,0 C -2,8 C 0,0 km/h
14.02.2012 06:00 -2,7 C 86 % 1015,1 hPa 0,0 l/m 0,0 km/h SO -4,7 C -2,7 C 0,0 km/h
14.02.2012 07:00 -2,6 C 86 % 1015,4 hPa 0,0 l/m 0,0 km/h O -4,6 C -2,6 C 0,0 km/h
14.02.2012 08:00 -2,1 C 86 % 1015,7 hPa 0,0 l/m 0,0 km/h O -4,1 C -2,1 C 0,0 km/h
14.02.2012 09:00 0,3 C 85 % 1015,8 hPa 0,0 l/m 0,0 km/h O -1,9 C 0,3 C 0,0 km/h
14.02.2012 10:00 1,0 C 81 % 1016,3 hPa 0,0 l/m 0,0 km/h O-SO -1,9 C 1,0 C 0,0 km/h
14.02.2012 11:00 2,1 C 78 % 1016,4 hPa 0,0 l/m 0,0 km/h S -1,3 C 2,1 C 0,0 km/h
14.02.2012 12:00 3,8 C 73 % 1016,0 hPa 0,4 l/m 0,0 km/h N-NW -0,6 C 3,8 C 0,0 km/h
14.02.2012 13:00 3,4 C 73 % 1016,1 hPa 0,0 l/m 0,0 km/h W -1,0 C 3,4 C 0,0 km/h
14.02.2012 14:00 1,9 C 79 % 1015,9 hPa 0,0 l/m 0,0 km/h W -1,3 C 1,9 C 0,0 km/h
14.02.2012 15:00 1,4 C 83 % 1015,4 hPa 0,0 l/m 0,0 km/h W-SW -1,2 C 1,4 C 0,0 km/h
14.02.2012 16:00 1,3 C 82 % 1015,6 hPa 0,0 l/m 0,0 km/h S -1,4 C 1,3 C 0,0 km/h
14.02.2012 17:00 0,7 C 83 % 1015,9 hPa 0,4 l/m 0,0 km/h NO -1,8 C 0,7 C 0,0 km/h
14.02.2012 18:00 0,4 C 84 % 1016,2 hPa 0,0 l/m 0,0 km/h NO -2,0 C 0,4 C 0,0 km/h
14.02.2012 19:00 0,1 C 86 % 1016,6 hPa 0,0 l/m 0,0 km/h NO -2,0 C 0,1 C 0,0 km/h
14.02.2012 20:00 0,2 C 86 % 1016,3 hPa 0,0 l/m 0,0 km/h W -1,9 C 0,2 C 0,0 km/h
14.02.2012 21:00 0,3 C 87 % 1016,2 hPa 0,0 l/m 0,0 km/h W-SW -1,6 C 0,3 C 0,0 km/h
14.02.2012 22:00 0,8 C 87 % 1015,9 hPa 0,0 l/m 5,8 km/h W-NW -1,1 C 0,8 C 3,2 km/h
14.02.2012 23:00 0,2 C 86 % 1015,7 hPa 0,0 l/m 0,0 km/h S -1,9 C 0,2 C 0,0 km/h
15.02.2012 00:00 -0,1 C 86 % 1015,3 hPa 0,0 l/m 0,0 km/h S -2,2 C -0,1 C 0,0 km/h
15.02.2012 01:00 0,9 C 86 % 1014,9 hPa 0,0 l/m 8,4 km/h SW -1,2 C -1,1 C 4,7 km/h
15.02.2012 02:00 0,5 C 86 % 1014,5 hPa 0,0 l/m 20,7 km/h SW -1,6 C -9,3 C 11,5 km/h
15.02.2012 03:00 0,9 C 86 % 1014,0 hPa 0,0 l/m 23,3 km/h W-SW -1,2 C -9,9 C 13,0 km/h
15.02.2012 04:00 0,7 C 85 % 1013,4 hPa 0,4 l/m 33,7 km/h S-SW -1,5 C -13,4 C 18,7 km/h
15.02.2012 05:00 0,6 C 83 % 1013,0 hPa 0,4 l/m 18,8 km/h W-SW -1,9 C -8,3 C 10,4 km/h
15.02.2012 06:00 0,8 C 82 % 1012,1 hPa 0,0 l/m 21,4 km/h W-SW -1,9 C -9,2 C 11,9 km/h
15.02.2012 07:00 0,9 C 84 % 1012,2 hPa 0,4 l/m 23,3 km/h W -1,5 C -9,9 C 13,0 km/h
15.02.2012 08:00 0,9 C 83 % 1012,4 hPa 0,7 l/m 22,7 km/h W-NW -1,7 C -9,6 C 12,6 km/h
15.02.2012 09:00 0,9 C 84 % 1012,6 hPa 0,4 l/m 18,8 km/h W-SW -1,5 C -7,9 C 10,4 km/h
15.02.2012 10:00 1,1 C 84 % 1013,0 hPa 0,4 l/m 20,1 km/h W -1,3 C -8,3 C 11,2 km/h
15.02.2012 11:00 1,0 C 83 % 1013,3 hPa 0,4 l/m 7,1 km/h W-SW -1,6 C 0,3 C 4,0 km/h
15.02.2012 12:00 1,5 C 83 % 1013,5 hPa 0,4 l/m 20,7 km/h NW -1,1 C -8,0 C 11,5 km/h
15.02.2012 13:00 1,9 C 84 % 1013,1 hPa 1,1 l/m 0,0 km/h W-SW -0,5 C 1,9 C 0,0 km/h
15.02.2012 14:00 2,1 C 84 % 1012,9 hPa 0,7 l/m 20,7 km/h N-NO -0,3 C -7,2 C 11,5 km/h
15.02.2012 15:00 2,1 C 83 % 1013,8 hPa 0,4 l/m 11,0 km/h S-SO -0,5 C -1,9 C 6,1 km/h
15.02.2012 16:00 1,3 C 84 % 1013,7 hPa 1,1 l/m 0,0 km/h S-SW -1,1 C 1,3 C 0,0 km/h
15.02.2012 17:00 1,7 C 84 % 1015,0 hPa 0,0 l/m 3,2 km/h SO -0,7 C 1,7 C 1,8 km/h
15.02.2012 18:00 1,6 C 84 % 1015,8 hPa 0,4 l/m 5,2 km/h NO -0,8 C 1,6 C 2,9 km/h
15.02.2012 19:00 1,5 C 83 % 1016,5 hPa 0,0 l/m 0,0 km/h NO -1,1 C 1,5 C 0,0 km/h
15.02.2012 20:00 1,2 C 83 % 1016,7 hPa 0,0 l/m 0,0 km/h N-NO -1,4 C 1,2 C 0,0 km/h
15.02.2012 21:00 1,1 C 83 % 1017,0 hPa 0,0 l/m 0,0 km/h N-NO -1,5 C 1,1 C 0,0 km/h
15.02.2012 22:00 1,1 C 82 % 1017,6 hPa 0,4 l/m 0,0 km/h N-NO -1,6 C 1,1 C 0,0 km/h
15.02.2012 23:00 1,2 C 82 % 1017,6 hPa 0,0 l/m 0,0 km/h N-NO -1,5 C 1,2 C 0,0 km/h
16.02.2012 00:00 1,1 C 82 % 1018,4 hPa 0,0 l/m 0,0 km/h N-NO -1,6 C 1,1 C 0,0 km/h
16.02.2012 01:00 1,0 C 82 % 1018,7 hPa 0,0 l/m 0,0 km/h N-NO -1,7 C 1,0 C 0,0 km/h
16.02.2012 02:00 1,1 C 82 % 1019,3 hPa 0,7 l/m 0,0 km/h S-SO -1,6 C 1,1 C 0,0 km/h
16.02.2012 03:00 0,9 C 82 % 1019,5 hPa 0,4 l/m 5,8 km/h S -1,8 C 0,9 C 3,2 km/h
16.02.2012 04:00 1,0 C 82 % 1019,7 hPa 0,4 l/m 1,3 km/h SO -1,7 C 1,0 C 0,7 km/h
16.02.2012 05:00 0,7 C 82 % 1020,1 hPa 0,0 l/m 1,3 km/h O-SO -2,0 C 0,7 C 0,7 km/h
16.02.2012 06:00 0,6 C 81 % 1020,6 hPa 0,0 l/m 0,0 km/h O-SO -2,3 C 0,6 C 0,0 km/h
16.02.2012 07:00 0,5 C 81 % 1021,2 hPa 0,0 l/m 0,0 km/h NO -2,4 C 0,5 C 0,0 km/h
16.02.2012 08:00 0,8 C 81 % 1022,1 hPa 0,0 l/m 0,0 km/h NO -2,1 C 0,8 C 0,0 km/h
16.02.2012 09:00 2,2 C 79 % 1022,8 hPa 0,0 l/m 0,0 km/h NO -1,1 C 2,2 C 0,0 km/h
16.02.2012 10:00 6,9 C 66 % 1023,2 hPa 0,0 l/m 0,0 km/h S-SW 1,0 C 6,9 C 0,0 km/h
16.02.2012 11:00 6,2 C 83 % 1023,7 hPa 0,0 l/m 0,0 km/h S 3,5 C 6,2 C 0,0 km/h
16.02.2012 12:00 7,8 C 74 % 1023,4 hPa 0,0 l/m 0,0 km/h S-SO 3,5 C 7,8 C 0,0 km/h
16.02.2012 13:00 6,1 C 72 % 1023,5 hPa 0,0 l/m 0,0 km/h N 1,4 C 6,1 C 0,0 km/h
16.02.2012 14:00 8,8 C 64 % 1023,3 hPa 0,0 l/m 0,0 km/h S-SO 2,4 C 8,8 C 0,0 km/h
16.02.2012 15:00 11,8 C 54 % 1023,3 hPa 0,0 l/m 0,0 km/h S-SO 2,8 C 11,8 C 0,0 km/h
16.02.2012 16:00 9,3 C 55 % 1023,4 hPa 0,0 l/m 0,0 km/h NO 0,7 C 9,3 C 0,0 km/h
16.02.2012 17:00 3,4 C 74 % 1023,7 hPa 0,0 l/m 0,0 km/h O-SO -0,8 C 3,4 C 0,0 km/h
16.02.2012 18:00 1,9 C 81 % 1024,4 hPa 0,0 l/m 0,0 km/h O -1,0 C 1,9 C 0,0 km/h
16.02.2012 19:00 1,5 C 84 % 1024,6 hPa 0,0 l/m 0,0 km/h O-SO -0,9 C 1,5 C 0,0 km/h
16.02.2012 20:00 1,5 C 85 % 1024,7 hPa 0,0 l/m 0,0 km/h SO -0,7 C 1,5 C 0,0 km/h
16.02.2012 21:00 1,1 C 85 % 1024,7 hPa 0,0 l/m 0,0 km/h O-NO -1,1 C 1,1 C 0,0 km/h
16.02.2012 22:00 1,3 C 86 % 1025,2 hPa 0,0 l/m 0,0 km/h O -0,8 C 1,3 C 0,0 km/h
16.02.2012 23:00 1,2 C 86 % 1024,9 hPa 0,0 l/m 0,0 km/h O-SO -0,9 C 1,2 C 0,0 km/h
17.02.2012 00:00 1,3 C 86 % 1024,8 hPa 0,0 l/m 0,0 km/h O -0,8 C 1,3 C 0,0 km/h
17.02.2012 01:00 1,3 C 86 % 1024,5 hPa 0,0 l/m 0,0 km/h O-NO -0,8 C 1,3 C 0,0 km/h
17.02.2012 02:00 1,4 C 86 % 1024,6 hPa 0,0 l/m 0,0 km/h O-NO -0,7 C 1,4 C 0,0 km/h
17.02.2012 03:00 1,4 C 86 % 1024,5 hPa 0,0 l/m 0,0 km/h O-NO -0,7 C 1,4 C 0,0 km/h
17.02.2012 04:00 1,3 C 87 % 1024,0 hPa 0,0 l/m 0,0 km/h O-NO -0,6 C 1,3 C 0,0 km/h
17.02.2012 05:00 1,1 C 87 % 1024,4 hPa 0,0 l/m 0,0 km/h O-SO -0,8 C 1,1 C 0,0 km/h
17.02.2012 06:00 0,8 C 87 % 1024,6 hPa 0,0 l/m 0,0 km/h O -1,1 C 0,8 C 0,0 km/h
17.02.2012 07:00 0,9 C 87 % 1024,9 hPa 0,0 l/m 0,0 km/h O -1,0 C 0,9 C 0,0 km/h
17.02.2012 08:00 1,2 C 86 % 1024,9 hPa 0,0 l/m 0,0 km/h N-NO -0,9 C 1,2 C 0,0 km/h
17.02.2012 09:00 2,9 C 86 % 1025,0 hPa 0,0 l/m 0,0 km/h NO 0,8 C 2,9 C 0,0 km/h
17.02.2012 10:00 4,3 C 86 % 1024,8 hPa 0,0 l/m 0,0 km/h SO 2,2 C 4,3 C 0,0 km/h
17.02.2012 11:00 6,8 C 82 % 1024,8 hPa 0,0 l/m 0,0 km/h NO 3,9 C 6,8 C 0,0 km/h
17.02.2012 12:00 8,9 C 77 % 1024,9 hPa 0,0 l/m 0,0 km/h W-SW 5,1 C 8,9 C 0,0 km/h
17.02.2012 13:00 9,8 C 69 % 1024,1 hPa 0,0 l/m 5,8 km/h W 4,4 C 9,8 C 3,2 km/h
17.02.2012 14:00 9,6 C 70 % 1023,5 hPa 0,0 l/m 0,0 km/h W 4,4 C 9,6 C 0,0 km/h
17.02.2012 15:00 8,9 C 68 % 1023,3 hPa 0,0 l/m 0,0 km/h W-SW 3,3 C 8,9 C 0,0 km/h
17.02.2012 16:00 7,3 C 70 % 1023,3 hPa 0,0 l/m 18,1 km/h W-SW 2,2 C 0,5 C 10,1 km/h
17.02.2012 17:00 5,7 C 76 % 1023,6 hPa 0,0 l/m 0,0 km/h O-SO 1,8 C 5,7 C 0,0 km/h
17.02.2012 18:00 3,5 C 79 % 1023,5 hPa 0,0 l/m 0,0 km/h O-SO 0,2 C 3,5 C 0,0 km/h
17.02.2012 19:00 2,2 C 83 % 1023,4 hPa 0,0 l/m 0,0 km/h O-SO -0,4 C 2,2 C 0,0 km/h
17.02.2012 20:00 2,2 C 85 % 1023,2 hPa 0,0 l/m 0,0 km/h O-NO -0,1 C 2,2 C 0,0 km/h
17.02.2012 21:00 2,2 C 86 % 1023,1 hPa 0,0 l/m 0,0 km/h SO 0,1 C 2,2 C 0,0 km/h
17.02.2012 22:00 2,4 C 86 % 1023,0 hPa 0,0 l/m 0,0 km/h O-SO 0,3 C 2,4 C 0,0 km/h
17.02.2012 23:00 2,2 C 86 % 1022,8 hPa 0,0 l/m 0,0 km/h O-SO 0,1 C 2,2 C 0,0 km/h
18.02.2012 00:00 2,2 C 86 % 1022,8 hPa 0,0 l/m 0,0 km/h O-SO 0,1 C 2,2 C 0,0 km/h
18.02.2012 01:00 2,1 C 86 % 1022,3 hPa 0,0 l/m 0,0 km/h O-SO 0,0 C 2,1 C 0,0 km/h
18.02.2012 02:00 2,1 C 86 % 1022,1 hPa 0,0 l/m 0,0 km/h SO 0,0 C 2,1 C 0,0 km/h
18.02.2012 03:00 1,9 C 86 % 1021,5 hPa 0,0 l/m 0,0 km/h O-SO -0,2 C 1,9 C 0,0 km/h
18.02.2012 04:00 2,1 C 86 % 1021,0 hPa 0,0 l/m 0,0 km/h O 0,0 C 2,1 C 0,0 km/h
18.02.2012 05:00 1,9 C 86 % 1020,7 hPa 0,0 l/m 0,0 km/h O-SO -0,2 C 1,9 C 0,0 km/h
18.02.2012 06:00 1,4 C 86 % 1020,2 hPa 0,0 l/m 0,0 km/h O-NO -0,7 C 1,4 C 0,0 km/h
18.02.2012 07:00 1,5 C 86 % 1020,0 hPa 0,0 l/m 0,0 km/h O-NO -0,6 C 1,5 C 0,0 km/h
18.02.2012 08:00 2,4 C 86 % 1020,3 hPa 0,0 l/m 0,0 km/h O-NO 0,3 C 2,4 C 0,0 km/h
18.02.2012 09:00 4,9 C 86 % 1019,9 hPa 0,0 l/m 0,0 km/h W 2,8 C 4,9 C 0,0 km/h
18.02.2012 10:00 9,3 C 75 % 1019,7 hPa 0,0 l/m 2,6 km/h W-SW 5,1 C 9,3 C 1,4 km/h
18.02.2012 11:00 11,1 C 65 % 1019,5 hPa 0,0 l/m 0,0 km/h W-SW 4,8 C 11,1 C 0,0 km/h
18.02.2012 12:00 11,8 C 63 % 1018,5 hPa 0,0 l/m 9,1 km/h W 5,0 C 10,1 C 5,0 km/h
18.02.2012 13:00 10,1 C 65 % 1018,1 hPa 0,0 l/m 3,9 km/h W-SW 3,8 C 10,1 C 2,2 km/h
18.02.2012 14:00 9,3 C 69 % 1017,3 hPa 0,0 l/m 16,8 km/h W-SW 3,9 C 3,5 C 9,4 km/h
18.02.2012 15:00 12,5 C 60 % 1016,3 hPa 0,0 l/m 1,9 km/h W 5,0 C 12,5 C 1,1 km/h
18.02.2012 16:00 9,6 C 66 % 1015,9 hPa 0,0 l/m 3,2 km/h W-SW 3,6 C 9,6 C 1,8 km/h
18.02.2012 17:00 8,1 C 70 % 1015,6 hPa 0,0 l/m 0,0 km/h S-SO 3,0 C 8,1 C 0,0 km/h
18.02.2012 18:00 6,4 C 76 % 1015,5 hPa 0,0 l/m 11,0 km/h O-NO 2,5 C 3,0 C 6,1 km/h
18.02.2012 19:00 4,1 C 81 % 1015,2 hPa 0,0 l/m 0,0 km/h O-NO 1,1 C 4,1 C 0,0 km/h
18.02.2012 20:00 3,2 C 84 % 1014,7 hPa 0,0 l/m 0,0 km/h O-NO 0,8 C 3,2 C 0,0 km/h
18.02.2012 21:00 2,7 C 85 % 1014,3 hPa 0,0 l/m 0,0 km/h NO 0,4 C 2,7 C 0,0 km/h
18.02.2012 22:00 2,6 C 86 % 1013,8 hPa 0,0 l/m 0,0 km/h O-SO 0,5 C 2,6 C 0,0 km/h
18.02.2012 23:00 2,7 C 86 % 1013,5 hPa 0,0 l/m 0,0 km/h NO 0,6 C 2,7 C 0,0 km/h
19.02.2012 00:00 3,3 C 86 % 1012,9 hPa 0,0 l/m 0,0 km/h NO 1,2 C 3,3 C 0,0 km/h
19.02.2012 01:00 3,8 C 86 % 1012,5 hPa 0,0 l/m 0,0 km/h W-NW 1,7 C 3,8 C 0,0 km/h
19.02.2012 02:00 4,8 C 86 % 1012,7 hPa 0,4 l/m 18,1 km/h SW 2,7 C -2,6 C 10,1 km/h
19.02.2012 03:00 4,8 C 86 % 1012,6 hPa 0,4 l/m 24,0 km/h SW 2,7 C -4,9 C 13,3 km/h
19.02.2012 04:00 4,4 C 86 % 1012,2 hPa 0,7 l/m 12,3 km/h S-SW 2,3 C -0,1 C 6,8 km/h
19.02.2012 05:00 4,9 C 86 % 1012,0 hPa 0,0 l/m 20,7 km/h W-SW 2,8 C -3,6 C 11,5 km/h
19.02.2012 06:00 5,2 C 85 % 1012,6 hPa 0,0 l/m 29,2 km/h SW 2,9 C -5,9 C 16,2 km/h
19.02.2012 07:00 5,3 C 85 % 1013,0 hPa 0,0 l/m 33,7 km/h NW 3,0 C -6,8 C 18,7 km/h
19.02.2012 08:00 4,4 C 85 % 1014,8 hPa 0,4 l/m 14,9 km/h O 2,1 C -1,6 C 8,3 km/h
19.02.2012 09:00 2,7 C 86 % 1016,4 hPa 1,1 l/m 0,0 km/h SO 0,6 C 2,7 C 0,0 km/h
19.02.2012 10:00 2,5 C 86 % 1017,3 hPa 0,4 l/m 6,5 km/h S 0,4 C 2,4 C 3,6 km/h
19.02.2012 11:00 4,8 C 86 % 1018,3 hPa 0,0 l/m 0,0 km/h NW 2,7 C 4,8 C 0,0 km/h
19.02.2012 12:00 6,4 C 71 % 1018,8 hPa 0,0 l/m 1,3 km/h NW 1,5 C 6,4 C 0,7 km/h
19.02.2012 13:00 7,4 C 62 % 1019,2 hPa 0,0 l/m 7,1 km/h NW 0,6 C 6,8 C 4,0 km/h
19.02.2012 14:00 6,6 C 56 % 1019,4 hPa 0,0 l/m 1,9 km/h N-NW -1,5 C 6,6 C 1,1 km/h
19.02.2012 15:00 6,2 C 57 % 1020,2 hPa 0,0 l/m 0,6 km/h N-NO -1,7 C 6,2 C 0,4 km/h
19.02.2012 16:00 10,9 C 47 % 1020,7 hPa 0,0 l/m 0,0 km/h N-NW 0,0 C 10,9 C 0,0 km/h
19.02.2012 17:00 4,3 C 60 % 1021,4 hPa 0,0 l/m 0,0 km/h N-NW -2,8 C 4,3 C 0,0 km/h
19.02.2012 18:00 2,9 C 68 % 1022,6 hPa 0,0 l/m 0,0 km/h O-SO -2,4 C 2,9 C 0,0 km/h
19.02.2012 19:00 1,6 C 75 % 1023,7 hPa 0,0 l/m 3,2 km/h O-SO -2,3 C 1,6 C 1,8 km/h
19.02.2012 20:00 0,3 C 80 % 1024,6 hPa 0,0 l/m 0,0 km/h SO -2,7 C 0,3 C 0,0 km/h
19.02.2012 21:00 -0,4 C 83 % 1025,6 hPa 0,0 l/m 0,0 km/h O-SO -2,9 C -0,4 C 0,0 km/h
19.02.2012 22:00 -0,5 C 85 % 1026,4 hPa 0,0 l/m 0,0 km/h O-SO -2,7 C -0,5 C 0,0 km/h
19.02.2012 23:00 -0,5 C 86 % 1026,7 hPa 0,0 l/m 0,0 km/h O-SO -2,5 C -0,5 C 0,0 km/h
Min-Datum _ 13.02.12 19.02.12 19.02.12 - 13.02.12 - 13.02.12 15.02.12 13.02.12
_ Min-Zeit 03:30 16:30 05:30 - 00:30 - 01:30 04:30 00:30
Minimum _ -12,8 C 47 % 1012,0 hPa - 0,0 km/h - -15,6 C -13,4 C 0,0 km/h
Max-Datum _ 18.02.12 14.02.12 13.02.12 15.02.12 15.02.12 - 18.02.12 18.02.12 15.02.12
_ Max-Zeit 15:30 21:30 00:30 13:30 04:30 - 10:30 15:30 04:30
Maximum _ 12,5 C 87 % 1026,7 hPa 1,1 l/m 33,7 km/h
S-SW
- 5,1 C 12,5 C 18,7 km/h
S-SW
Durchschnitt _ 1,7 C 79 % 1019,4 hPa #12,5 l/m 3,3 km/h O-SO -1,7 C 0,5 C 1,8 km/h
www.sexauwetter.de